createdAt,value
2023-11-30T00:01:16.027Z,20.23
2023-11-30T00:03:45.104Z,19.80
2023-11-30T00:06:14.592Z,18.70
2023-11-30T00:08:43.660Z,18.25
2023-11-30T00:11:13.304Z,17.85
2023-11-30T00:13:41.611Z,17.58
2023-11-30T00:16:12.881Z,17.88
2023-11-30T00:18:41.954Z,17.02
2023-11-30T00:21:10.583Z,16.08
2023-11-30T00:23:39.090Z,16.10
2023-11-30T00:26:09.291Z,15.95
2023-11-30T00:28:37.701Z,16.20
2023-11-30T00:31:08.879Z,16.38
2023-11-30T00:33:41.157Z,15.05
2023-11-30T00:36:11.589Z,15.73
2023-11-30T00:38:40.591Z,15.55
2023-11-30T00:41:15.259Z,14.90
2023-11-30T00:43:43.754Z,15.50
2023-11-30T00:46:16.053Z,16.08
2023-11-30T00:48:49.351Z,15.68
2023-11-30T00:51:18.379Z,15.18
2023-11-30T00:53:47.378Z,15.35
2023-11-30T00:56:15.792Z,14.68
2023-11-30T00:58:45.180Z,15.45
2023-11-30T01:01:13.786Z,14.50
2023-11-30T01:03:43.094Z,16.33
2023-11-30T01:06:13.891Z,16.10
2023-11-30T01:08:42.359Z,16.45
2023-11-30T01:11:12.151Z,14.85
2023-11-30T01:13:40.647Z,14.57
2023-11-30T01:16:10.982Z,15.15
2023-11-30T01:18:40.467Z,15.05
2023-11-30T01:21:10.541Z,15.48
2023-11-30T01:23:42.947Z,15.43
2023-11-30T01:26:11.502Z,14.55
2023-11-30T01:28:40.570Z,15.55
2023-11-30T01:31:09.418Z,15.95
2023-11-30T01:33:39.616Z,15.63
2023-11-30T01:36:12.336Z,15.75
2023-11-30T01:38:42.193Z,16.35
2023-11-30T01:41:11.041Z,16.05
2023-11-30T01:43:43.222Z,15.90
2023-11-30T01:46:14.239Z,16.55
2023-11-30T01:48:44.208Z,16.10
2023-11-30T01:51:13.000Z,15.88
2023-11-30T01:53:43.453Z,15.93
2023-11-30T01:56:14.157Z,16.45
2023-11-30T01:58:43.968Z,16.17
2023-11-30T02:01:12.800Z,16.38
2023-11-30T02:03:42.799Z,16.75
2023-11-30T02:06:11.842Z,16.77
2023-11-30T02:08:39.996Z,16.50
2023-11-30T02:11:11.094Z,15.13
2023-11-30T02:13:39.638Z,15.75
2023-11-30T02:16:08.903Z,16.42
2023-11-30T02:18:37.655Z,15.73
2023-11-30T02:21:06.966Z,15.18
2023-11-30T02:23:36.884Z,15.48
2023-11-30T02:26:07.568Z,15.50
2023-11-30T02:28:36.150Z,15.75
2023-11-30T02:31:04.647Z,15.60
2023-11-30T02:33:33.253Z,15.45
2023-11-30T02:36:02.074Z,15.88
2023-11-30T02:38:30.268Z,15.90
2023-11-30T02:41:02.574Z,15.15
2023-11-30T02:43:32.191Z,15.52
2023-11-30T02:46:02.024Z,15.88
2023-11-30T02:48:30.869Z,14.05
2023-11-30T02:50:59.314Z,14.98
2023-11-30T02:53:27.800Z,13.43
2023-11-30T02:55:56.328Z,13.57
2023-11-30T02:58:26.192Z,14.07
2023-11-30T03:00:54.779Z,14.07
2023-11-30T03:03:24.019Z,13.65
2023-11-30T03:05:54.550Z,13.50
2023-11-30T03:08:26.398Z,14.45
2023-11-30T03:10:55.884Z,12.82
2023-11-30T03:13:25.472Z,12.82
2023-11-30T03:15:54.001Z,12.90
2023-11-30T03:18:23.440Z,12.23
2023-11-30T03:20:52.070Z,12.90
2023-11-30T03:23:20.879Z,12.35
2023-11-30T03:25:49.678Z,13.38
2023-11-30T03:28:18.841Z,12.57
2023-11-30T03:30:48.965Z,13.07
2023-11-30T03:33:17.476Z,13.30
2023-11-30T03:35:46.693Z,12.48
2023-11-30T03:38:15.638Z,13.20
2023-11-30T03:40:44.426Z,13.82
2023-11-30T03:43:14.116Z,13.27
2023-11-30T03:45:42.970Z,13.70
2023-11-30T03:48:13.838Z,13.88
2023-11-30T03:50:42.859Z,13.87
2023-11-30T03:53:11.744Z,13.63
2023-11-30T03:55:40.000Z,13.93
2023-11-30T03:58:10.338Z,13.88
2023-11-30T04:00:38.877Z,13.15
2023-11-30T04:03:07.544Z,13.80
2023-11-30T04:05:37.528Z,13.32
2023-11-30T04:08:07.080Z,12.90
2023-11-30T04:10:35.575Z,14.30
2023-11-30T04:13:04.076Z,13.73
2023-11-30T04:15:32.436Z,14.98
2023-11-30T04:18:01.871Z,15.38
2023-11-30T04:20:30.432Z,15.52
2023-11-30T04:23:01.049Z,15.23
2023-11-30T04:25:30.946Z,15.15
2023-11-30T04:28:01.242Z,14.18
2023-11-30T04:30:30.075Z,14.68
2023-11-30T04:32:58.983Z,14.13
2023-11-30T04:35:27.791Z,14.93
2023-11-30T04:37:58.228Z,14.60
2023-11-30T04:40:28.027Z,15.00
2023-11-30T04:42:56.491Z,14.88
2023-11-30T04:45:25.255Z,14.60
2023-11-30T04:47:53.842Z,14.95
2023-11-30T04:50:22.171Z,15.00
2023-11-30T04:52:50.738Z,14.27
2023-11-30T04:55:19.296Z,14.93
2023-11-30T04:57:50.047Z,15.10
2023-11-30T05:00:19.840Z,15.02
2023-11-30T05:02:54.107Z,14.43
2023-11-30T05:05:25.940Z,15.48
2023-11-30T05:07:54.723Z,15.38
2023-11-30T05:10:24.067Z,14.63
2023-11-30T05:12:55.062Z,15.30
2023-11-30T05:15:23.693Z,15.50
2023-11-30T05:17:52.150Z,15.50
2023-11-30T05:20:20.646Z,14.77
2023-11-30T05:22:49.040Z,15.60
2023-11-30T05:25:17.584Z,15.65
2023-11-30T05:27:45.939Z,15.60
2023-11-30T05:30:16.239Z,15.48
2023-11-30T05:32:45.056Z,16.13
2023-11-30T05:35:15.323Z,15.48
2023-11-30T05:37:45.747Z,16.25
2023-11-30T05:40:14.942Z,15.98
2023-11-30T05:42:44.873Z,16.25
2023-11-30T05:45:13.273Z,16.65
2023-11-30T05:47:43.301Z,16.10
2023-11-30T05:50:12.678Z,16.77
2023-11-30T05:52:41.210Z,17.02
2023-11-30T05:55:11.832Z,17.55
2023-11-30T05:57:40.401Z,17.75
2023-11-30T06:00:11.729Z,16.77
2023-11-30T06:02:40.532Z,16.85
2023-11-30T06:05:11.604Z,17.65
2023-11-30T06:07:41.130Z,17.13
2023-11-30T06:10:12.128Z,17.15
2023-11-30T06:12:41.421Z,17.25
2023-11-30T06:15:12.029Z,17.98
2023-11-30T06:17:41.458Z,17.70
2023-11-30T06:20:13.730Z,17.83
2023-11-30T06:22:42.956Z,17.52
2023-11-30T06:25:12.218Z,18.38
2023-11-30T06:27:40.637Z,18.90
2023-11-30T06:30:10.176Z,18.65
2023-11-30T06:32:38.941Z,19.42
2023-11-30T06:35:09.165Z,20.15
2023-11-30T06:37:39.705Z,19.45
2023-11-30T06:40:10.451Z,19.88
2023-11-30T06:42:38.808Z,20.50
2023-11-30T06:45:09.022Z,19.90
2023-11-30T06:47:38.431Z,20.38
2023-11-30T06:50:08.774Z,20.77
2023-11-30T06:52:40.562Z,20.85
2023-11-30T06:55:11.354Z,20.52
2023-11-30T06:57:40.276Z,20.90
2023-11-30T07:00:12.754Z,20.92
2023-11-30T07:05:10.389Z,19.98
2023-11-30T07:07:43.142Z,20.95
2023-11-30T07:10:14.923Z,20.77
2023-11-30T07:12:44.936Z,21.55
2023-11-30T07:15:13.312Z,21.13
2023-11-30T07:17:41.948Z,21.30
2023-11-30T07:20:11.436Z,20.77
2023-11-30T07:22:41.488Z,20.95
2023-11-30T07:25:11.921Z,21.45
2023-11-30T07:27:40.592Z,20.40
2023-11-30T07:30:11.373Z,21.60
2023-11-30T07:32:41.374Z,20.13
2023-11-30T07:35:11.211Z,20.95
2023-11-30T07:37:42.124Z,21.77
2023-11-30T07:40:11.251Z,21.65
2023-11-30T07:42:42.314Z,21.52
2023-11-30T07:45:11.592Z,23.53
2023-11-30T07:47:40.400Z,22.83
2023-11-30T07:50:09.288Z,22.10
2023-11-30T07:52:38.856Z,23.27
2023-11-30T07:55:13.946Z,23.20
2023-11-30T07:57:42.289Z,24.67
2023-11-30T08:00:13.192Z,23.38
2023-11-30T08:05:13.712Z,23.17
2023-11-30T08:07:42.694Z,25.58
2023-11-30T08:10:16.301Z,25.67
2023-11-30T08:12:45.213Z,26.63
2023-11-30T08:15:14.596Z,27.27
2023-11-30T08:17:43.601Z,27.35
2023-11-30T08:20:15.315Z,27.15
2023-11-30T08:22:44.116Z,27.50
2023-11-30T08:25:17.157Z,27.33
2023-11-30T08:27:49.141Z,28.17
2023-11-30T08:30:22.904Z,27.95
2023-11-30T08:32:53.661Z,28.63
2023-11-30T08:35:23.285Z,28.33
2023-11-30T08:37:54.121Z,28.17
2023-11-30T08:40:25.339Z,28.27
2023-11-30T08:42:53.882Z,29.98
2023-11-30T08:45:22.536Z,29.55
2023-11-30T08:47:52.134Z,30.65
2023-11-30T08:50:21.983Z,29.35
2023-11-30T08:52:50.547Z,30.15
2023-11-30T08:55:19.314Z,30.83
2023-11-30T08:57:50.125Z,30.10
2023-11-30T09:00:20.719Z,30.05
2023-11-30T09:02:49.233Z,29.50
2023-11-30T09:05:19.461Z,29.85
2023-11-30T09:07:51.786Z,30.45
2023-11-30T09:10:21.262Z,27.50
2023-11-30T09:12:51.558Z,29.75
2023-11-30T09:15:23.006Z,29.95
2023-11-30T09:17:51.398Z,29.42
2023-11-30T09:20:21.578Z,28.02
2023-11-30T09:22:50.011Z,28.50
2023-11-30T09:25:18.906Z,28.83
2023-11-30T09:27:47.293Z,27.85
2023-11-30T09:30:17.917Z,28.15
2023-11-30T09:32:46.368Z,27.85
2023-11-30T09:35:15.352Z,27.85
2023-11-30T09:37:46.258Z,28.83
2023-11-30T09:40:14.809Z,27.35
2023-11-30T09:42:44.107Z,28.92
2023-11-30T09:45:12.697Z,28.35
2023-11-30T09:47:44.097Z,28.50
2023-11-30T09:50:13.919Z,31.02
2023-11-30T09:52:43.490Z,33.38
2023-11-30T09:55:15.157Z,30.70
2023-11-30T09:57:44.325Z,31.02
2023-11-30T10:00:14.381Z,31.33
2023-11-30T10:02:58.870Z,31.70
2023-11-30T10:05:29.401Z,30.83
2023-11-30T10:08:00.376Z,30.88
2023-11-30T10:10:28.936Z,29.38
2023-11-30T10:12:58.000Z,30.38
2023-11-30T10:15:26.956Z,31.98
2023-11-30T10:17:57.941Z,32.10
2023-11-30T10:20:27.360Z,31.23
2023-11-30T10:22:55.773Z,31.80
2023-11-30T10:25:24.072Z,31.13
2023-11-30T10:27:55.148Z,30.48
2023-11-30T10:30:27.754Z,30.45
2023-11-30T10:33:01.383Z,29.38
2023-11-30T10:35:33.054Z,29.55
2023-11-30T10:38:02.849Z,28.42
2023-11-30T10:40:32.384Z,31.17
2023-11-30T10:43:06.170Z,31.13
2023-11-30T10:45:40.936Z,30.85
2023-11-30T10:48:14.609Z,29.70
2023-11-30T10:50:43.310Z,30.73
2023-11-30T10:53:27.990Z,30.05
2023-11-30T10:56:00.233Z,29.27
2023-11-30T10:58:28.860Z,29.93
2023-11-30T11:00:59.712Z,28.83
2023-11-30T11:03:31.210Z,28.15
2023-11-30T11:05:59.755Z,29.42
2023-11-30T11:08:30.074Z,28.80
2023-11-30T11:11:07.873Z,28.77
2023-11-30T11:13:48.971Z,27.52
2023-11-30T11:16:18.625Z,27.65
2023-11-30T11:18:49.865Z,28.08
2023-11-30T11:21:29.578Z,28.77
2023-11-30T11:24:04.628Z,28.85
2023-11-30T11:26:46.601Z,28.15
2023-11-30T11:29:21.314Z,29.13
2023-11-30T11:31:58.358Z,31.23
2023-11-30T11:34:28.191Z,29.17
2023-11-30T11:36:57.161Z,30.45
2023-11-30T11:39:27.066Z,33.88
2023-11-30T11:41:57.500Z,31.88
2023-11-30T11:44:26.571Z,30.13
2023-11-30T11:46:56.281Z,30.50
2023-11-30T11:49:25.174Z,29.75
2023-11-30T11:51:56.310Z,29.83
2023-11-30T11:54:25.325Z,30.42
2023-11-30T11:56:54.851Z,41.63
2023-11-30T11:59:25.029Z,32.00
2023-11-30T12:01:53.592Z,29.95
2023-11-30T12:04:33.053Z,29.73
2023-11-30T12:07:14.642Z,27.38
2023-11-30T12:09:43.294Z,26.23
2023-11-30T12:12:13.569Z,27.17
2023-11-30T12:14:42.838Z,26.80
2023-11-30T12:17:12.046Z,25.70
2023-11-30T12:19:40.604Z,24.65
2023-11-30T12:22:11.017Z,25.80
2023-11-30T12:24:40.746Z,25.95
2023-11-30T12:27:09.323Z,26.15
2023-11-30T12:29:39.021Z,26.45
2023-11-30T12:32:08.271Z,28.20
2023-11-30T12:34:37.266Z,28.38
2023-11-30T12:37:06.323Z,26.33
2023-11-30T12:39:38.709Z,26.50
2023-11-30T12:42:07.621Z,24.67
2023-11-30T12:44:36.598Z,24.35
2023-11-30T12:47:05.669Z,24.52
2023-11-30T12:49:34.563Z,25.10
2023-11-30T12:52:06.429Z,24.83
2023-11-30T12:54:36.631Z,25.05
2023-11-30T12:57:06.578Z,24.15
2023-11-30T12:59:35.093Z,24.02
2023-11-30T13:02:03.846Z,23.80
2023-11-30T13:04:35.727Z,24.35
2023-11-30T13:07:04.232Z,23.08
2023-11-30T13:09:35.785Z,23.00
2023-11-30T13:12:06.686Z,23.73
2023-11-30T13:14:35.251Z,24.10
2023-11-30T13:17:06.723Z,23.85
2023-11-30T13:19:37.102Z,23.33
2023-11-30T13:22:06.468Z,22.20
2023-11-30T13:24:36.171Z,22.20
2023-11-30T13:27:06.900Z,21.90
2023-11-30T13:29:35.742Z,22.73
2023-11-30T13:32:07.245Z,22.52
2023-11-30T13:34:36.706Z,22.30
2023-11-30T13:37:05.521Z,22.35
2023-11-30T13:39:34.208Z,21.90
2023-11-30T13:42:03.314Z,21.20
2023-11-30T13:44:34.305Z,21.20
2023-11-30T13:47:02.871Z,20.40
2023-11-30T13:49:32.279Z,20.88
2023-11-30T13:52:00.557Z,20.00
2023-11-30T13:54:30.066Z,19.63
2023-11-30T13:56:58.619Z,19.73
2023-11-30T13:59:28.241Z,18.98
2023-11-30T14:01:59.968Z,19.40
2023-11-30T14:04:28.383Z,19.20
2023-11-30T14:06:58.089Z,18.75
2023-11-30T14:09:30.292Z,18.02
2023-11-30T14:14:27.503Z,16.60
2023-11-30T14:16:57.484Z,16.98
2023-11-30T14:19:26.193Z,17.92
2023-11-30T14:21:56.146Z,18.55
2023-11-30T14:24:24.596Z,18.58
2023-11-30T14:26:53.214Z,17.25
2023-11-30T14:29:23.275Z,16.85
2023-11-30T14:31:52.200Z,18.42
2023-11-30T14:34:22.652Z,18.20
2023-11-30T14:36:53.282Z,17.60
2023-11-30T14:39:26.018Z,17.33
2023-11-30T14:41:55.384Z,16.63
2023-11-30T14:44:24.382Z,16.88
2023-11-30T14:46:52.573Z,16.20
2023-11-30T14:49:23.424Z,16.25
2023-11-30T14:51:51.897Z,16.33
2023-11-30T14:54:23.064Z,16.45
2023-11-30T14:56:52.724Z,16.75
2023-11-30T14:59:21.414Z,16.05
2023-11-30T15:01:51.477Z,16.95
2023-11-30T15:04:20.234Z,16.42
2023-11-30T15:06:50.550Z,16.05
2023-11-30T15:09:19.828Z,16.30
2023-11-30T15:11:48.906Z,16.25
2023-11-30T15:14:17.225Z,16.95
2023-11-30T15:16:46.186Z,16.52
2023-11-30T15:19:15.969Z,16.50
2023-11-30T15:21:45.220Z,16.83
2023-11-30T15:24:15.570Z,18.45
2023-11-30T15:26:43.810Z,18.00
2023-11-30T15:29:12.998Z,16.35
2023-11-30T15:31:42.223Z,15.20
2023-11-30T15:34:11.335Z,15.18
2023-11-30T15:36:45.085Z,15.77
2023-11-30T15:39:17.074Z,15.32
2023-11-30T15:41:47.574Z,14.23
2023-11-30T15:44:16.565Z,14.80
2023-11-30T15:46:45.784Z,14.68
2023-11-30T15:49:14.578Z,14.05
2023-11-30T15:51:44.675Z,14.10
2023-11-30T15:54:13.497Z,15.40
2023-11-30T15:56:42.476Z,15.85
2023-11-30T15:59:12.688Z,16.08
2023-11-30T16:01:41.521Z,15.95
2023-11-30T16:04:10.301Z,15.05
2023-11-30T16:06:40.020Z,14.43
2023-11-30T16:09:10.083Z,13.80
2023-11-30T16:11:39.839Z,14.25
2023-11-30T16:14:08.388Z,14.52
2023-11-30T16:16:42.112Z,15.27
2023-11-30T16:19:13.033Z,14.65
2023-11-30T16:21:44.637Z,14.45
2023-11-30T16:24:14.405Z,15.00
2023-11-30T16:26:43.264Z,15.10
2023-11-30T16:29:12.311Z,15.10
2023-11-30T16:31:43.527Z,14.73
2023-11-30T16:34:11.801Z,12.95
2023-11-30T16:36:42.441Z,12.98
2023-11-30T16:39:14.343Z,13.05
2023-11-30T16:41:42.579Z,14.00
2023-11-30T16:44:11.429Z,13.95
2023-11-30T16:46:41.065Z,19.00
2023-11-30T16:49:09.419Z,15.43
2023-11-30T16:51:44.085Z,15.60
2023-11-30T16:54:17.951Z,13.38
2023-11-30T16:56:46.607Z,15.27
2023-11-30T16:59:16.302Z,13.45
2023-11-30T17:01:49.180Z,13.07
2023-11-30T17:04:20.183Z,14.00
2023-11-30T17:06:49.977Z,13.98
2023-11-30T17:09:19.028Z,13.80
2023-11-30T17:11:48.220Z,12.70
2023-11-30T17:14:16.817Z,12.15
2023-11-30T17:16:45.467Z,12.93
2023-11-30T17:19:15.658Z,12.52
2023-11-30T17:21:45.832Z,13.07
2023-11-30T17:24:16.178Z,15.20
2023-11-30T17:26:45.636Z,13.73
2023-11-30T17:29:14.429Z,14.23
2023-11-30T17:31:43.702Z,13.02
2023-11-30T17:34:14.083Z,12.13
2023-11-30T17:36:57.770Z,12.57
2023-11-30T17:42:37.292Z,13.38
2023-11-30T17:45:22.219Z,14.13
2023-11-30T17:48:22.771Z,14.32
2023-11-30T17:51:35.193Z,14.98
2023-11-30T17:57:59.783Z,13.68
2023-11-30T18:00:38.003Z,13.73
2023-11-30T18:03:31.089Z,12.90
2023-11-30T18:06:08.635Z,13.13
2023-11-30T18:09:09.168Z,14.68
2023-11-30T18:12:08.890Z,13.80
2023-11-30T18:15:08.408Z,11.95
2023-11-30T18:17:58.012Z,11.52
2023-11-30T18:21:17.811Z,12.13
2023-11-30T18:24:07.741Z,12.23
2023-11-30T18:27:33.992Z,15.20
2023-11-30T18:30:42.551Z,18.48
2023-11-30T18:33:34.651Z,19.38
2023-11-30T18:36:13.304Z,15.55
2023-11-30T18:38:54.085Z,16.70
2023-11-30T18:41:22.888Z,16.17
2023-11-30T18:44:26.870Z,15.07
2023-11-30T18:48:10.410Z,14.13
2023-11-30T18:50:50.977Z,13.93
2023-11-30T18:53:46.148Z,13.82
2023-11-30T18:56:55.784Z,15.85
2023-11-30T19:00:09.052Z,17.38
2023-11-30T19:03:04.493Z,17.45
2023-11-30T19:06:07.275Z,17.77
2023-11-30T19:09:21.072Z,17.90
2023-11-30T19:12:17.702Z,18.15
2023-11-30T19:15:24.244Z,18.33
2023-11-30T19:18:16.126Z,18.63
2023-11-30T19:23:59.967Z,21.65
2023-11-30T19:26:51.023Z,22.42
2023-11-30T19:29:50.714Z,20.88
2023-11-30T19:33:07.495Z,22.05
2023-11-30T19:35:53.285Z,23.23
2023-11-30T19:39:12.045Z,24.63
2023-11-30T19:45:17.466Z,23.65
2023-11-30T19:48:21.271Z,23.55
2023-11-30T19:51:31.299Z,22.83
2023-11-30T19:54:38.920Z,19.70
2023-11-30T19:57:35.433Z,22.85
2023-11-30T20:00:42.737Z,23.65
2023-11-30T20:03:50.636Z,21.63
2023-11-30T20:06:45.667Z,21.15
2023-11-30T20:10:00.800Z,22.10
2023-11-30T20:13:02.418Z,19.30
2023-11-30T20:16:12.207Z,18.23
2023-11-30T20:19:13.115Z,17.58
2023-11-30T20:25:28.632Z,19.52
2023-11-30T20:28:42.506Z,20.90
2023-11-30T20:34:43.822Z,22.48
2023-11-30T20:38:00.317Z,23.27
2023-11-30T20:40:59.866Z,23.40
2023-11-30T20:44:17.170Z,23.52
2023-11-30T20:46:48.993Z,22.98
2023-11-30T20:49:44.413Z,22.15
2023-11-30T20:52:55.906Z,23.48
2023-11-30T20:55:53.031Z,24.63
2023-11-30T20:59:25.433Z,25.87
2023-11-30T21:02:27.312Z,25.05
2023-11-30T21:05:08.701Z,24.38
2023-11-30T21:07:56.493Z,25.65
2023-11-30T21:11:05.921Z,24.48
2023-11-30T21:13:41.271Z,23.25
2023-11-30T21:16:38.328Z,23.00
2023-11-30T21:19:28.780Z,24.67
2023-11-30T21:22:13.105Z,23.60
2023-11-30T21:24:43.062Z,24.67
2023-11-30T21:27:31.489Z,26.85
2023-11-30T21:30:16.564Z,25.08
2023-11-30T21:33:17.418Z,24.73
2023-11-30T21:36:02.292Z,26.08
2023-11-30T21:38:44.426Z,27.40
2023-11-30T21:41:46.024Z,27.58
2023-11-30T21:44:31.714Z,26.00
2023-11-30T21:47:00.223Z,26.77
2023-11-30T21:49:51.442Z,24.85
2023-11-30T21:52:22.898Z,23.48
2023-11-30T21:54:52.588Z,24.67
2023-11-30T21:57:20.085Z,26.10
2023-11-30T21:59:49.485Z,25.27
2023-11-30T22:02:18.345Z,28.13
2023-11-30T22:04:47.172Z,27.52
2023-11-30T22:07:15.514Z,26.73
2023-11-30T22:09:44.227Z,24.38
2023-11-30T22:12:15.212Z,24.45
2023-11-30T22:14:43.470Z,25.50
2023-11-30T22:17:12.424Z,24.60
2023-11-30T22:19:40.688Z,25.42
2023-11-30T22:22:11.665Z,25.13
2023-11-30T22:24:40.153Z,25.58
2023-11-30T22:27:09.351Z,24.98
2023-11-30T22:29:39.846Z,24.27
2023-11-30T22:32:08.855Z,24.65
2023-11-30T22:34:39.115Z,24.60
2023-11-30T22:37:08.456Z,24.80
2023-11-30T22:39:39.974Z,25.30
2023-11-30T22:42:08.614Z,23.45
2023-11-30T22:44:37.308Z,25.38
2023-11-30T22:47:10.715Z,24.00
2023-11-30T22:49:42.994Z,24.75
2023-11-30T22:52:13.272Z,25.17
2023-11-30T22:54:41.694Z,26.45
2023-11-30T22:57:10.226Z,25.70
2023-11-30T22:59:38.432Z,26.27
2023-11-30T23:02:08.850Z,26.40
2023-11-30T23:04:38.253Z,25.90
2023-11-30T23:07:08.153Z,27.20
2023-11-30T23:09:37.744Z,26.63
2023-11-30T23:12:08.203Z,28.67
2023-11-30T23:14:37.047Z,28.52
2023-11-30T23:17:05.822Z,27.30
2023-11-30T23:19:39.343Z,27.50
2023-11-30T23:22:09.525Z,27.45
2023-11-30T23:24:38.748Z,29.08
2023-11-30T23:27:07.332Z,29.05
2023-11-30T23:29:39.707Z,28.83
2023-11-30T23:32:10.320Z,28.35
2023-11-30T23:34:42.599Z,28.88
2023-11-30T23:37:11.486Z,30.60
2023-11-30T23:39:40.177Z,30.27
2023-11-30T23:42:08.849Z,30.85
2023-11-30T23:44:38.915Z,30.40
2023-11-30T23:47:07.793Z,29.13
2023-11-30T23:49:38.718Z,30.13
2023-11-30T23:52:09.382Z,29.67
2023-11-30T23:54:38.095Z,31.05
2023-11-30T23:57:08.286Z,29.08
2023-11-30T23:59:36.756Z,28.25
